sensor_id;sensor_type;location;lat;lon;timestamp;P1;durP1;ratioP1;P2;durP2;ratioP2
63714;SDS011;49858;48.956;9.076;2024-02-16T00:01:50;9.35;;;5.70;;
63714;SDS011;49858;48.956;9.076;2024-02-16T00:04:18;9.38;;;5.20;;
63714;SDS011;49858;48.956;9.076;2024-02-16T00:06:47;10.05;;;5.53;;
63714;SDS011;49858;48.956;9.076;2024-02-16T00:09:17;11.73;;;5.63;;
63714;SDS011;49858;48.956;9.076;2024-02-16T00:11:45;10.13;;;6.03;;
63714;SDS011;49858;48.956;9.076;2024-02-16T00:14:13;10.20;;;5.32;;
63714;SDS011;49858;48.956;9.076;2024-02-16T00:16:43;10.63;;;5.85;;
63714;SDS011;49858;48.956;9.076;2024-02-16T00:19:10;9.57;;;5.70;;
63714;SDS011;49858;48.956;9.076;2024-02-16T00:21:38;10.82;;;5.85;;
63714;SDS011;49858;48.956;9.076;2024-02-16T00:24:08;9.05;;;5.35;;
63714;SDS011;49858;48.956;9.076;2024-02-16T00:26:36;9.45;;;5.22;;
63714;SDS011;49858;48.956;9.076;2024-02-16T00:29:06;8.05;;;4.97;;
63714;SDS011;49858;48.956;9.076;2024-02-16T00:31:35;8.00;;;4.88;;
63714;SDS011;49858;48.956;9.076;2024-02-16T00:34:04;9.05;;;5.45;;
63714;SDS011;49858;48.956;9.076;2024-02-16T00:36:32;11.00;;;6.28;;
63714;SDS011;49858;48.956;9.076;2024-02-16T00:39:00;11.35;;;5.88;;
63714;SDS011;49858;48.956;9.076;2024-02-16T00:41:29;11.75;;;6.05;;
63714;SDS011;49858;48.956;9.076;2024-02-16T00:43:57;9.40;;;6.70;;
63714;SDS011;49858;48.956;9.076;2024-02-16T00:46:25;9.23;;;5.90;;
63714;SDS011;49858;48.956;9.076;2024-02-16T00:48:53;11.00;;;5.93;;
63714;SDS011;49858;48.956;9.076;2024-02-16T00:51:22;10.82;;;6.20;;
63714;SDS011;49858;48.956;9.076;2024-02-16T00:53:52;9.30;;;5.55;;
63714;SDS011;49858;48.956;9.076;2024-02-16T00:56:20;10.95;;;5.70;;
63714;SDS011;49858;48.956;9.076;2024-02-16T00:58:48;11.50;;;5.40;;
63714;SDS011;49858;48.956;9.076;2024-02-16T01:01:16;12.18;;;5.95;;
63714;SDS011;49858;48.956;9.076;2024-02-16T01:03:44;10.30;;;6.50;;
63714;SDS011;49858;48.956;9.076;2024-02-16T01:06:12;9.18;;;5.50;;
63714;SDS011;49858;48.956;9.076;2024-02-16T01:08:41;10.35;;;5.97;;
63714;SDS011;49858;48.956;9.076;2024-02-16T01:11:09;10.77;;;5.63;;
63714;SDS011;49858;48.956;9.076;2024-02-16T01:13:37;11.32;;;5.50;;
63714;SDS011;49858;48.956;9.076;2024-02-16T01:16:05;12.25;;;5.45;;
63714;SDS011;49858;48.956;9.076;2024-02-16T01:18:33;10.48;;;5.38;;
63714;SDS011;49858;48.956;9.076;2024-02-16T01:21:03;10.88;;;5.88;;
63714;SDS011;49858;48.956;9.076;2024-02-16T01:23:31;9.50;;;4.88;;
63714;SDS011;49858;48.956;9.076;2024-02-16T01:26:00;7.32;;;5.00;;
63714;SDS011;49858;48.956;9.076;2024-02-16T01:28:28;10.20;;;6.07;;
63714;SDS011;49858;48.956;9.076;2024-02-16T01:30:56;12.43;;;6.55;;
63714;SDS011;49858;48.956;9.076;2024-02-16T01:33:23;10.02;;;5.65;;
63714;SDS011;49858;48.956;9.076;2024-02-16T01:35:52;9.77;;;5.40;;
63714;SDS011;49858;48.956;9.076;2024-02-16T01:38:19;13.75;;;6.13;;
63714;SDS011;49858;48.956;9.076;2024-02-16T01:40:49;11.00;;;5.78;;
63714;SDS011;49858;48.956;9.076;2024-02-16T01:43:19;9.68;;;5.20;;
63714;SDS011;49858;48.956;9.076;2024-02-16T01:45:47;12.43;;;5.25;;
63714;SDS011;49858;48.956;9.076;2024-02-16T01:48:15;9.27;;;5.55;;
63714;SDS011;49858;48.956;9.076;2024-02-16T01:50:44;8.05;;;5.43;;
63714;SDS011;49858;48.956;9.076;2024-02-16T01:53:15;10.05;;;5.53;;
63714;SDS011;49858;48.956;9.076;2024-02-16T01:55:44;9.73;;;5.90;;
63714;SDS011;49858;48.956;9.076;2024-02-16T01:58:12;13.85;;;5.95;;
63714;SDS011;49858;48.956;9.076;2024-02-16T02:00:42;9.73;;;5.47;;
63714;SDS011;49858;48.956;9.076;2024-02-16T02:03:10;17.90;;;6.10;;
63714;SDS011;49858;48.956;9.076;2024-02-16T02:05:43;12.32;;;6.65;;
63714;SDS011;49858;48.956;9.076;2024-02-16T02:08:12;9.30;;;5.80;;
63714;SDS011;49858;48.956;9.076;2024-02-16T02:10:41;15.90;;;6.28;;
63714;SDS011;49858;48.956;9.076;2024-02-16T02:13:09;9.13;;;5.88;;
63714;SDS011;49858;48.956;9.076;2024-02-16T02:15:37;8.80;;;5.60;;
63714;SDS011;49858;48.956;9.076;2024-02-16T02:18:06;13.43;;;5.97;;
63714;SDS011;49858;48.956;9.076;2024-02-16T02:20:35;10.57;;;5.85;;
63714;SDS011;49858;48.956;9.076;2024-02-16T02:23:04;11.23;;;6.70;;
63714;SDS011;49858;48.956;9.076;2024-02-16T02:25:32;10.05;;;6.07;;
63714;SDS011;49858;48.956;9.076;2024-02-16T02:28:00;10.60;;;5.82;;
63714;SDS011;49858;48.956;9.076;2024-02-16T02:30:29;12.38;;;7.28;;
63714;SDS011;49858;48.956;9.076;2024-02-16T02:32:57;9.57;;;6.20;;
63714;SDS011;49858;48.956;9.076;2024-02-16T02:35:25;10.52;;;6.47;;
63714;SDS011;49858;48.956;9.076;2024-02-16T02:37:53;10.18;;;6.68;;
63714;SDS011;49858;48.956;9.076;2024-02-16T02:40:22;12.57;;;6.53;;
63714;SDS011;49858;48.956;9.076;2024-02-16T02:42:51;9.13;;;6.57;;
63714;SDS011;49858;48.956;9.076;2024-02-16T02:45:19;13.73;;;6.88;;
63714;SDS011;49858;48.956;9.076;2024-02-16T02:47:46;10.65;;;5.30;;
63714;SDS011;49858;48.956;9.076;2024-02-16T02:50:15;17.08;;;6.57;;
63714;SDS011;49858;48.956;9.076;2024-02-16T02:52:43;14.23;;;6.90;;
63714;SDS011;49858;48.956;9.076;2024-02-16T02:55:12;10.63;;;6.57;;
63714;SDS011;49858;48.956;9.076;2024-02-16T02:57:41;11.27;;;6.45;;
63714;SDS011;49858;48.956;9.076;2024-02-16T03:00:09;11.85;;;6.63;;
63714;SDS011;49858;48.956;9.076;2024-02-16T03:02:39;9.85;;;6.28;;
63714;SDS011;49858;48.956;9.076;2024-02-16T03:05:07;13.50;;;6.38;;
63714;SDS011;49858;48.956;9.076;2024-02-16T03:07:35;15.25;;;6.57;;
63714;SDS011;49858;48.956;9.076;2024-02-16T03:10:03;9.05;;;5.82;;
63714;SDS011;49858;48.956;9.076;2024-02-16T03:12:32;8.68;;;5.63;;
63714;SDS011;49858;48.956;9.076;2024-02-16T03:15:01;10.18;;;6.13;;
63714;SDS011;49858;48.956;9.076;2024-02-16T03:17:30;9.75;;;5.28;;
63714;SDS011;49858;48.956;9.076;2024-02-16T03:19:58;6.32;;;5.13;;
63714;SDS011;49858;48.956;9.076;2024-02-16T03:22:26;11.20;;;5.65;;
63714;SDS011;49858;48.956;9.076;2024-02-16T03:24:53;8.48;;;5.00;;
63714;SDS011;49858;48.956;9.076;2024-02-16T03:27:21;9.48;;;5.60;;
63714;SDS011;49858;48.956;9.076;2024-02-16T03:29:49;8.95;;;5.13;;
63714;SDS011;49858;48.956;9.076;2024-02-16T03:32:19;8.10;;;5.15;;
63714;SDS011;49858;48.956;9.076;2024-02-16T03:34:47;7.93;;;4.72;;
63714;SDS011;49858;48.956;9.076;2024-02-16T03:37:17;7.78;;;4.80;;
63714;SDS011;49858;48.956;9.076;2024-02-16T03:39:45;9.43;;;5.20;;
63714;SDS011;49858;48.956;9.076;2024-02-16T03:42:13;11.50;;;5.88;;
63714;SDS011;49858;48.956;9.076;2024-02-16T03:44:41;16.83;;;5.93;;
63714;SDS011;49858;48.956;9.076;2024-02-16T03:47:09;7.55;;;5.57;;
63714;SDS011;49858;48.956;9.076;2024-02-16T03:49:38;13.52;;;5.53;;
63714;SDS011;49858;48.956;9.076;2024-02-16T03:52:07;10.85;;;5.63;;
63714;SDS011;49858;48.956;9.076;2024-02-16T03:54:34;10.93;;;5.63;;
63714;SDS011;49858;48.956;9.076;2024-02-16T03:57:02;9.43;;;5.80;;
63714;SDS011;49858;48.956;9.076;2024-02-16T03:59:35;8.93;;;4.97;;
63714;SDS011;49858;48.956;9.076;2024-02-16T04:02:03;9.13;;;5.20;;
63714;SDS011;49858;48.956;9.076;2024-02-16T04:04:31;9.32;;;4.72;;
63714;SDS011;49858;48.956;9.076;2024-02-16T04:07:00;8.05;;;4.90;;
63714;SDS011;49858;48.956;9.076;2024-02-16T04:09:28;8.98;;;5.00;;
63714;SDS011;49858;48.956;9.076;2024-02-16T04:11:55;8.75;;;5.05;;
63714;SDS011;49858;48.956;9.076;2024-02-16T04:14:23;8.23;;;5.07;;
63714;SDS011;49858;48.956;9.076;2024-02-16T04:16:51;9.07;;;4.63;;
63714;SDS011;49858;48.956;9.076;2024-02-16T04:19:19;9.88;;;4.70;;
63714;SDS011;49858;48.956;9.076;2024-02-16T04:21:47;11.98;;;5.20;;
63714;SDS011;49858;48.956;9.076;2024-02-16T04:24:16;7.80;;;4.50;;
63714;SDS011;49858;48.956;9.076;2024-02-16T04:26:44;6.22;;;4.00;;
63714;SDS011;49858;48.956;9.076;2024-02-16T04:29:15;15.98;;;7.65;;
63714;SDS011;49858;48.956;9.076;2024-02-16T04:31:43;14.07;;;5.30;;
63714;SDS011;49858;48.956;9.076;2024-02-16T04:34:12;8.07;;;4.40;;
63714;SDS011;49858;48.956;9.076;2024-02-16T04:36:41;8.38;;;4.63;;
63714;SDS011;49858;48.956;9.076;2024-02-16T04:39:09;10.88;;;5.93;;
63714;SDS011;49858;48.956;9.076;2024-02-16T04:41:39;7.70;;;4.70;;
63714;SDS011;49858;48.956;9.076;2024-02-16T04:44:08;8.52;;;4.60;;
63714;SDS011;49858;48.956;9.076;2024-02-16T04:46:35;7.45;;;4.45;;
63714;SDS011;49858;48.956;9.076;2024-02-16T04:49:04;7.93;;;4.70;;
63714;SDS011;49858;48.956;9.076;2024-02-16T04:51:32;6.40;;;4.55;;
63714;SDS011;49858;48.956;9.076;2024-02-16T04:54:00;6.70;;;4.90;;
63714;SDS011;49858;48.956;9.076;2024-02-16T04:56:30;6.40;;;4.00;;
63714;SDS011;49858;48.956;9.076;2024-02-16T04:58:59;9.23;;;5.20;;
63714;SDS011;49858;48.956;9.076;2024-02-16T05:01:27;5.40;;;4.00;;
63714;SDS011;49858;48.956;9.076;2024-02-16T05:03:56;6.70;;;4.45;;
63714;SDS011;49858;48.956;9.076;2024-02-16T05:06:26;7.47;;;4.25;;
63714;SDS011;49858;48.956;9.076;2024-02-16T05:08:56;8.70;;;4.50;;
63714;SDS011;49858;48.956;9.076;2024-02-16T05:11:24;8.77;;;4.88;;
63714;SDS011;49858;48.956;9.076;2024-02-16T05:13:52;6.50;;;4.60;;
63714;SDS011;49858;48.956;9.076;2024-02-16T05:16:21;7.72;;;4.40;;
63714;SDS011;49858;48.956;9.076;2024-02-16T05:18:49;8.35;;;5.38;;
63714;SDS011;49858;48.956;9.076;2024-02-16T05:21:17;10.98;;;5.70;;
63714;SDS011;49858;48.956;9.076;2024-02-16T05:23:45;10.63;;;6.30;;
63714;SDS011;49858;48.956;9.076;2024-02-16T05:26:13;8.32;;;5.70;;
63714;SDS011;49858;48.956;9.076;2024-02-16T05:28:41;5.95;;;4.70;;
63714;SDS011;49858;48.956;9.076;2024-02-16T05:31:13;12.15;;;4.97;;
63714;SDS011;49858;48.956;9.076;2024-02-16T05:33:43;9.85;;;4.43;;
63714;SDS011;49858;48.956;9.076;2024-02-16T05:36:12;12.43;;;4.18;;
63714;SDS011;49858;48.956;9.076;2024-02-16T05:38:40;6.22;;;4.03;;
63714;SDS011;49858;48.956;9.076;2024-02-16T05:41:09;10.50;;;4.25;;
63714;SDS011;49858;48.956;9.076;2024-02-16T05:43:37;7.60;;;4.50;;
63714;SDS011;49858;48.956;9.076;2024-02-16T05:46:05;8.40;;;4.32;;
63714;SDS011;49858;48.956;9.076;2024-02-16T05:48:34;9.13;;;5.20;;
63714;SDS011;49858;48.956;9.076;2024-02-16T05:51:06;7.53;;;4.22;;
63714;SDS011;49858;48.956;9.076;2024-02-16T05:53:34;7.88;;;4.85;;
63714;SDS011;49858;48.956;9.076;2024-02-16T05:56:03;7.30;;;4.40;;
63714;SDS011;49858;48.956;9.076;2024-02-16T05:58:32;7.03;;;4.32;;
63714;SDS011;49858;48.956;9.076;2024-02-16T06:01:00;8.93;;;4.75;;
63714;SDS011;49858;48.956;9.076;2024-02-16T06:03:28;10.05;;;4.28;;
63714;SDS011;49858;48.956;9.076;2024-02-16T06:05:56;8.65;;;4.50;;
63714;SDS011;49858;48.956;9.076;2024-02-16T06:08:24;11.43;;;5.00;;
63714;SDS011;49858;48.956;9.076;2024-02-16T06:10:56;7.63;;;4.85;;
63714;SDS011;49858;48.956;9.076;2024-02-16T06:13:24;9.85;;;4.97;;
63714;SDS011;49858;48.956;9.076;2024-02-16T06:15:51;7.05;;;4.60;;
63714;SDS011;49858;48.956;9.076;2024-02-16T06:18:19;9.23;;;5.10;;
63714;SDS011;49858;48.956;9.076;2024-02-16T06:20:47;9.07;;;4.28;;
63714;SDS011;49858;48.956;9.076;2024-02-16T06:23:15;8.60;;;4.63;;
63714;SDS011;49858;48.956;9.076;2024-02-16T06:25:45;9.82;;;4.53;;
63714;SDS011;49858;48.956;9.076;2024-02-16T06:28:13;6.82;;;4.70;;
63714;SDS011;49858;48.956;9.076;2024-02-16T06:30:41;7.22;;;4.50;;
63714;SDS011;49858;48.956;9.076;2024-02-16T06:33:09;12.40;;;6.00;;
63714;SDS011;49858;48.956;9.076;2024-02-16T06:35:37;14.45;;;6.68;;
63714;SDS011;49858;48.956;9.076;2024-02-16T06:38:04;13.70;;;5.35;;
63714;SDS011;49858;48.956;9.076;2024-02-16T06:40:32;9.73;;;4.70;;
63714;SDS011;49858;48.956;9.076;2024-02-16T06:43:02;7.63;;;4.43;;
63714;SDS011;49858;48.956;9.076;2024-02-16T06:45:31;11.88;;;7.00;;
63714;SDS011;49858;48.956;9.076;2024-02-16T06:47:59;11.20;;;6.00;;
63714;SDS011;49858;48.956;9.076;2024-02-16T06:50:27;10.88;;;5.28;;
63714;SDS011;49858;48.956;9.076;2024-02-16T06:52:55;7.40;;;4.85;;
63714;SDS011;49858;48.956;9.076;2024-02-16T06:55:22;7.65;;;4.55;;
63714;SDS011;49858;48.956;9.076;2024-02-16T06:57:50;9.68;;;5.18;;
63714;SDS011;49858;48.956;9.076;2024-02-16T07:00:20;10.35;;;5.57;;
63714;SDS011;49858;48.956;9.076;2024-02-16T07:02:48;8.77;;;5.07;;
63714;SDS011;49858;48.956;9.076;2024-02-16T07:05:16;10.52;;;5.78;;
63714;SDS011;49858;48.956;9.076;2024-02-16T07:07:44;32.80;;;17.83;;
63714;SDS011;49858;48.956;9.076;2024-02-16T07:10:12;12.55;;;7.13;;
63714;SDS011;49858;48.956;9.076;2024-02-16T07:12:40;8.98;;;5.50;;
63714;SDS011;49858;48.956;9.076;2024-02-16T07:15:08;12.32;;;5.85;;
63714;SDS011;49858;48.956;9.076;2024-02-16T07:17:38;9.75;;;5.55;;
63714;SDS011;49858;48.956;9.076;2024-02-16T07:20:06;8.85;;;5.63;;
63714;SDS011;49858;48.956;9.076;2024-02-16T07:22:34;11.35;;;5.32;;
63714;SDS011;49858;48.956;9.076;2024-02-16T07:25:02;9.98;;;5.30;;
63714;SDS011;49858;48.956;9.076;2024-02-16T07:27:31;10.35;;;6.72;;
63714;SDS011;49858;48.956;9.076;2024-02-16T07:29:59;11.32;;;6.75;;
63714;SDS011;49858;48.956;9.076;2024-02-16T07:32:27;11.30;;;6.60;;
63714;SDS011;49858;48.956;9.076;2024-02-16T07:34:56;12.60;;;5.60;;
63714;SDS011;49858;48.956;9.076;2024-02-16T07:37:24;10.20;;;6.00;;
63714;SDS011;49858;48.956;9.076;2024-02-16T07:39:53;10.20;;;6.32;;
63714;SDS011;49858;48.956;9.076;2024-02-16T07:42:22;11.38;;;6.28;;
63714;SDS011;49858;48.956;9.076;2024-02-16T07:44:50;10.98;;;6.70;;
63714;SDS011;49858;48.956;9.076;2024-02-16T07:47:20;14.93;;;6.65;;
63714;SDS011;49858;48.956;9.076;2024-02-16T07:49:48;15.98;;;7.82;;
63714;SDS011;49858;48.956;9.076;2024-02-16T07:52:18;17.40;;;10.00;;
63714;SDS011;49858;48.956;9.076;2024-02-16T07:54:46;14.80;;;9.23;;
63714;SDS011;49858;48.956;9.076;2024-02-16T07:57:14;12.48;;;7.80;;
63714;SDS011;49858;48.956;9.076;2024-02-16T07:59:42;13.75;;;6.95;;
63714;SDS011;49858;48.956;9.076;2024-02-16T08:02:10;10.85;;;6.15;;
63714;SDS011;49858;48.956;9.076;2024-02-16T08:04:42;12.75;;;5.70;;
63714;SDS011;49858;48.956;9.076;2024-02-16T08:07:10;7.82;;;5.75;;
63714;SDS011;49858;48.956;9.076;2024-02-16T08:09:39;12.80;;;5.55;;
63714;SDS011;49858;48.956;9.076;2024-02-16T08:12:07;10.57;;;6.03;;
63714;SDS011;49858;48.956;9.076;2024-02-16T08:14:35;16.30;;;7.47;;
63714;SDS011;49858;48.956;9.076;2024-02-16T08:17:03;13.10;;;7.53;;
63714;SDS011;49858;48.956;9.076;2024-02-16T08:19:44;11.95;;;6.82;;
63714;SDS011;49858;48.956;9.076;2024-02-16T08:22:20;12.63;;;6.68;;
63714;SDS011;49858;48.956;9.076;2024-02-16T08:24:50;10.05;;;6.30;;
63714;SDS011;49858;48.956;9.076;2024-02-16T08:27:18;11.98;;;6.70;;
63714;SDS011;49858;48.956;9.076;2024-02-16T08:29:47;21.35;;;7.28;;
63714;SDS011;49858;48.956;9.076;2024-02-16T08:32:15;15.75;;;6.47;;
63714;SDS011;49858;48.956;9.076;2024-02-16T08:34:44;8.80;;;6.15;;
63714;SDS011;49858;48.956;9.076;2024-02-16T08:37:12;10.02;;;5.70;;
63714;SDS011;49858;48.956;9.076;2024-02-16T08:39:40;11.27;;;5.95;;
63714;SDS011;49858;48.956;9.076;2024-02-16T08:42:09;14.00;;;6.53;;
63714;SDS011;49858;48.956;9.076;2024-02-16T08:44:38;13.38;;;7.13;;
63714;SDS011;49858;48.956;9.076;2024-02-16T08:47:08;14.38;;;7.45;;
63714;SDS011;49858;48.956;9.076;2024-02-16T08:49:36;13.93;;;7.60;;
63714;SDS011;49858;48.956;9.076;2024-02-16T08:52:05;15.68;;;6.97;;
63714;SDS011;49858;48.956;9.076;2024-02-16T08:54:34;13.02;;;8.00;;
63714;SDS011;49858;48.956;9.076;2024-02-16T08:57:03;12.68;;;7.00;;
63714;SDS011;49858;48.956;9.076;2024-02-16T09:03:12;11.90;;;6.03;;
63714;SDS011;49858;48.956;9.076;2024-02-16T09:05:41;12.82;;;6.40;;
63714;SDS011;49858;48.956;9.076;2024-02-16T09:08:09;13.85;;;6.70;;
63714;SDS011;49858;48.956;9.076;2024-02-16T09:10:38;12.23;;;7.25;;
63714;SDS011;49858;48.956;9.076;2024-02-16T09:13:05;11.77;;;6.88;;
63714;SDS011;49858;48.956;9.076;2024-02-16T09:15:35;11.32;;;7.18;;
63714;SDS011;49858;48.956;9.076;2024-02-16T09:18:04;13.18;;;6.55;;
63714;SDS011;49858;48.956;9.076;2024-02-16T09:20:34;9.10;;;5.93;;
63714;SDS011;49858;48.956;9.076;2024-02-16T09:23:01;13.05;;;6.43;;
63714;SDS011;49858;48.956;9.076;2024-02-16T09:25:30;11.05;;;6.68;;
63714;SDS011;49858;48.956;9.076;2024-02-16T09:27:57;8.95;;;5.43;;
63714;SDS011;49858;48.956;9.076;2024-02-16T09:30:27;12.00;;;6.32;;
63714;SDS011;49858;48.956;9.076;2024-02-16T09:32:55;11.35;;;5.60;;
63714;SDS011;49858;48.956;9.076;2024-02-16T09:35:23;8.98;;;5.10;;
63714;SDS011;49858;48.956;9.076;2024-02-16T09:37:52;7.22;;;5.22;;
63714;SDS011;49858;48.956;9.076;2024-02-16T09:40:20;9.13;;;5.07;;
63714;SDS011;49858;48.956;9.076;2024-02-16T09:42:48;8.27;;;5.88;;
63714;SDS011;49858;48.956;9.076;2024-02-16T09:45:17;9.32;;;5.22;;
63714;SDS011;49858;48.956;9.076;2024-02-16T09:47:45;6.90;;;4.20;;
63714;SDS011;49858;48.956;9.076;2024-02-16T09:50:26;8.52;;;4.32;;
63714;SDS011;49858;48.956;9.076;2024-02-16T09:52:56;5.43;;;3.97;;
63714;SDS011;49858;48.956;9.076;2024-02-16T09:55:25;8.20;;;5.22;;
63714;SDS011;49858;48.956;9.076;2024-02-16T09:57:59;16.95;;;5.38;;
63714;SDS011;49858;48.956;9.076;2024-02-16T10:00:27;11.20;;;6.63;;
63714;SDS011;49858;48.956;9.076;2024-02-16T10:02:55;11.18;;;6.03;;
63714;SDS011;49858;48.956;9.076;2024-02-16T10:05:23;9.15;;;5.35;;
63714;SDS011;49858;48.956;9.076;2024-02-16T10:07:52;8.45;;;5.20;;
63714;SDS011;49858;48.956;9.076;2024-02-16T10:10:21;8.80;;;5.53;;
63714;SDS011;49858;48.956;9.076;2024-02-16T10:12:50;7.70;;;5.53;;
63714;SDS011;49858;48.956;9.076;2024-02-16T10:15:27;11.25;;;5.88;;
63714;SDS011;49858;48.956;9.076;2024-02-16T10:17:58;11.23;;;5.63;;
63714;SDS011;49858;48.956;9.076;2024-02-16T10:20:27;8.00;;;5.13;;
63714;SDS011;49858;48.956;9.076;2024-02-16T10:23:04;10.35;;;5.80;;
63714;SDS011;49858;48.956;9.076;2024-02-16T10:25:34;10.13;;;5.78;;
63714;SDS011;49858;48.956;9.076;2024-02-16T10:28:04;8.07;;;5.30;;
63714;SDS011;49858;48.956;9.076;2024-02-16T10:30:34;11.60;;;6.72;;
63714;SDS011;49858;48.956;9.076;2024-02-16T10:33:04;8.48;;;5.30;;
63714;SDS011;49858;48.956;9.076;2024-02-16T10:35:33;8.45;;;5.30;;
63714;SDS011;49858;48.956;9.076;2024-02-16T10:38:02;11.98;;;6.13;;
63714;SDS011;49858;48.956;9.076;2024-02-16T10:40:38;7.13;;;5.18;;
63714;SDS011;49858;48.956;9.076;2024-02-16T10:43:07;7.38;;;4.53;;
63714;SDS011;49858;48.956;9.076;2024-02-16T10:45:37;12.07;;;4.90;;
63714;SDS011;49858;48.956;9.076;2024-02-16T10:48:06;9.18;;;4.50;;
63714;SDS011;49858;48.956;9.076;2024-02-16T10:50:35;7.50;;;4.82;;
63714;SDS011;49858;48.956;9.076;2024-02-16T10:53:06;6.50;;;4.03;;
63714;SDS011;49858;48.956;9.076;2024-02-16T10:55:40;8.88;;;4.40;;
63714;SDS011;49858;48.956;9.076;2024-02-16T10:58:10;7.82;;;3.58;;
63714;SDS011;49858;48.956;9.076;2024-02-16T11:00:47;5.95;;;3.83;;
63714;SDS011;49858;48.956;9.076;2024-02-16T11:03:17;6.30;;;3.95;;
63714;SDS011;49858;48.956;9.076;2024-02-16T11:05:50;6.72;;;3.55;;
63714;SDS011;49858;48.956;9.076;2024-02-16T11:08:19;4.68;;;3.38;;
63714;SDS011;49858;48.956;9.076;2024-02-16T11:10:56;6.13;;;3.85;;
63714;SDS011;49858;48.956;9.076;2024-02-16T11:13:26;7.57;;;3.95;;
63714;SDS011;49858;48.956;9.076;2024-02-16T11:15:58;6.75;;;3.40;;
63714;SDS011;49858;48.956;9.076;2024-02-16T11:18:27;7.95;;;3.70;;
63714;SDS011;49858;48.956;9.076;2024-02-16T11:21:00;6.90;;;3.35;;
63714;SDS011;49858;48.956;9.076;2024-02-16T11:23:28;5.35;;;3.13;;
63714;SDS011;49858;48.956;9.076;2024-02-16T11:26:00;6.10;;;3.08;;
63714;SDS011;49858;48.956;9.076;2024-02-16T11:28:31;6.00;;;2.80;;
63714;SDS011;49858;48.956;9.076;2024-02-16T11:31:00;5.25;;;2.83;;
63714;SDS011;49858;48.956;9.076;2024-02-16T11:33:29;2.78;;;2.28;;
63714;SDS011;49858;48.956;9.076;2024-02-16T11:35:58;4.03;;;2.20;;
63714;SDS011;49858;48.956;9.076;2024-02-16T11:38:27;4.47;;;2.33;;
63714;SDS011;49858;48.956;9.076;2024-02-16T11:40:58;4.55;;;2.03;;
63714;SDS011;49858;48.956;9.076;2024-02-16T11:43:29;4.85;;;2.67;;
63714;SDS011;49858;48.956;9.076;2024-02-16T11:45:57;7.10;;;2.80;;
63714;SDS011;49858;48.956;9.076;2024-02-16T11:48:25;4.90;;;2.20;;
63714;SDS011;49858;48.956;9.076;2024-02-16T11:50:58;3.38;;;2.35;;
63714;SDS011;49858;48.956;9.076;2024-02-16T11:53:28;3.50;;;2.23;;
63714;SDS011;49858;48.956;9.076;2024-02-16T11:55:56;6.93;;;2.72;;
63714;SDS011;49858;48.956;9.076;2024-02-16T11:58:24;2.58;;;0.98;;
63714;SDS011;49858;48.956;9.076;2024-02-16T12:00:54;3.25;;;1.60;;
63714;SDS011;49858;48.956;9.076;2024-02-16T12:03:23;3.97;;;1.83;;
63714;SDS011;49858;48.956;9.076;2024-02-16T12:05:53;7.80;;;2.03;;
63714;SDS011;49858;48.956;9.076;2024-02-16T12:08:22;2.58;;;1.70;;
63714;SDS011;49858;48.956;9.076;2024-02-16T12:10:51;4.07;;;2.08;;
63714;SDS011;49858;48.956;9.076;2024-02-16T12:13:21;3.58;;;1.75;;
63714;SDS011;49858;48.956;9.076;2024-02-16T12:15:50;4.18;;;1.70;;
63714;SDS011;49858;48.956;9.076;2024-02-16T12:18:20;4.22;;;2.38;;
63714;SDS011;49858;48.956;9.076;2024-02-16T12:21:01;4.90;;;2.22;;
63714;SDS011;49858;48.956;9.076;2024-02-16T12:23:30;4.22;;;2.45;;
63714;SDS011;49858;48.956;9.076;2024-02-16T12:25:59;2.03;;;1.63;;
63714;SDS011;49858;48.956;9.076;2024-02-16T12:28:28;7.40;;;1.70;;
63714;SDS011;49858;48.956;9.076;2024-02-16T12:30:58;2.55;;;1.17;;
63714;SDS011;49858;48.956;9.076;2024-02-16T12:33:31;4.70;;;2.20;;
63714;SDS011;49858;48.956;9.076;2024-02-16T12:35:59;4.57;;;1.15;;
63714;SDS011;49858;48.956;9.076;2024-02-16T12:38:27;4.10;;;1.75;;
63714;SDS011;49858;48.956;9.076;2024-02-16T12:40:55;4.53;;;2.10;;
63714;SDS011;49858;48.956;9.076;2024-02-16T12:43:23;1.63;;;1.00;;
63714;SDS011;49858;48.956;9.076;2024-02-16T12:45:51;3.58;;;1.80;;
63714;SDS011;49858;48.956;9.076;2024-02-16T12:48:18;1.85;;;1.33;;
63714;SDS011;49858;48.956;9.076;2024-02-16T12:50:48;4.00;;;1.40;;
63714;SDS011;49858;48.956;9.076;2024-02-16T12:53:17;2.13;;;1.20;;
63714;SDS011;49858;48.956;9.076;2024-02-16T12:55:47;5.22;;;1.80;;
63714;SDS011;49858;48.956;9.076;2024-02-16T12:58:15;4.03;;;1.70;;
63714;SDS011;49858;48.956;9.076;2024-02-16T13:00:43;5.85;;;2.38;;
63714;SDS011;49858;48.956;9.076;2024-02-16T13:03:11;3.50;;;1.65;;
63714;SDS011;49858;48.956;9.076;2024-02-16T13:05:39;4.60;;;1.83;;
63714;SDS011;49858;48.956;9.076;2024-02-16T13:08:11;2.80;;;1.55;;
63714;SDS011;49858;48.956;9.076;2024-02-16T13:10:39;8.43;;;1.45;;
63714;SDS011;49858;48.956;9.076;2024-02-16T13:13:07;2.15;;;1.40;;
63714;SDS011;49858;48.956;9.076;2024-02-16T13:15:35;5.60;;;2.00;;
63714;SDS011;49858;48.956;9.076;2024-02-16T13:18:03;4.95;;;1.48;;
63714;SDS011;49858;48.956;9.076;2024-02-16T13:20:31;4.22;;;1.67;;
63714;SDS011;49858;48.956;9.076;2024-02-16T13:23:00;3.90;;;1.83;;
63714;SDS011;49858;48.956;9.076;2024-02-16T13:25:30;5.65;;;1.75;;
63714;SDS011;49858;48.956;9.076;2024-02-16T13:27:57;3.92;;;1.80;;
63714;SDS011;49858;48.956;9.076;2024-02-16T13:30:26;3.90;;;1.40;;
63714;SDS011;49858;48.956;9.076;2024-02-16T13:32:54;2.03;;;1.10;;
63714;SDS011;49858;48.956;9.076;2024-02-16T13:35:22;3.55;;;2.00;;
63714;SDS011;49858;48.956;9.076;2024-02-16T13:37:51;3.13;;;1.30;;
63714;SDS011;49858;48.956;9.076;2024-02-16T13:40:18;4.75;;;1.45;;
63714;SDS011;49858;48.956;9.076;2024-02-16T13:42:49;2.67;;;1.35;;
63714;SDS011;49858;48.956;9.076;2024-02-16T13:45:16;1.42;;;1.10;;
63714;SDS011;49858;48.956;9.076;2024-02-16T13:47:44;6.10;;;2.30;;
63714;SDS011;49858;48.956;9.076;2024-02-16T13:50:12;5.07;;;1.48;;
63714;SDS011;49858;48.956;9.076;2024-02-16T13:52:41;5.95;;;1.55;;
63714;SDS011;49858;48.956;9.076;2024-02-16T13:55:08;2.47;;;1.38;;
63714;SDS011;49858;48.956;9.076;2024-02-16T13:57:36;2.97;;;1.77;;
63714;SDS011;49858;48.956;9.076;2024-02-16T14:00:07;2.92;;;1.60;;
63714;SDS011;49858;48.956;9.076;2024-02-16T14:02:39;4.03;;;1.55;;
63714;SDS011;49858;48.956;9.076;2024-02-16T14:05:06;7.35;;;2.03;;
63714;SDS011;49858;48.956;9.076;2024-02-16T14:07:35;1.90;;;1.42;;
63714;SDS011;49858;48.956;9.076;2024-02-16T14:10:16;7.38;;;2.28;;
63714;SDS011;49858;48.956;9.076;2024-02-16T14:12:44;6.10;;;2.15;;
63714;SDS011;49858;48.956;9.076;2024-02-16T14:15:14;6.40;;;2.70;;
63714;SDS011;49858;48.956;9.076;2024-02-16T14:17:43;2.63;;;1.75;;
63714;SDS011;49858;48.956;9.076;2024-02-16T14:20:11;5.88;;;1.70;;
63714;SDS011;49858;48.956;9.076;2024-02-16T14:22:39;2.90;;;1.20;;
63714;SDS011;49858;48.956;9.076;2024-02-16T14:25:06;5.03;;;1.85;;
63714;SDS011;49858;48.956;9.076;2024-02-16T14:27:37;3.63;;;1.17;;
63714;SDS011;49858;48.956;9.076;2024-02-16T14:30:05;6.72;;;2.05;;
63714;SDS011;49858;48.956;9.076;2024-02-16T14:32:35;3.28;;;1.40;;
63714;SDS011;49858;48.956;9.076;2024-02-16T14:35:03;3.42;;;1.48;;
63714;SDS011;49858;48.956;9.076;2024-02-16T14:37:32;4.25;;;1.92;;
63714;SDS011;49858;48.956;9.076;2024-02-16T14:40:00;2.17;;;1.25;;
63714;SDS011;49858;48.956;9.076;2024-02-16T14:42:29;5.22;;;2.15;;
63714;SDS011;49858;48.956;9.076;2024-02-16T14:44:57;5.45;;;2.08;;
63714;SDS011;49858;48.956;9.076;2024-02-16T14:47:26;4.15;;;2.28;;
63714;SDS011;49858;48.956;9.076;2024-02-16T14:49:55;6.07;;;1.50;;
63714;SDS011;49858;48.956;9.076;2024-02-16T14:52:23;4.20;;;1.30;;
63714;SDS011;49858;48.956;9.076;2024-02-16T14:54:51;3.78;;;1.73;;
63714;SDS011;49858;48.956;9.076;2024-02-16T14:57:18;2.88;;;1.23;;